createdAt,value
2023-01-28T00:07:10.792Z,-2.38
2023-01-28T00:17:11.119Z,-2.38
2023-01-28T00:27:11.165Z,-2.22
2023-01-28T00:37:11.383Z,-2.22
2023-01-28T00:47:11.490Z,-2.22
2023-01-28T00:57:11.749Z,-2.06
2023-01-28T01:07:12.008Z,-2.06
2023-01-28T01:17:12.332Z,-2.06
2023-01-28T01:27:12.542Z,-2.22
2023-01-28T01:37:13.630Z,-2.06
2023-01-28T01:47:12.674Z,-1.91
2023-01-28T01:57:12.950Z,-1.91
2023-01-28T02:07:13.030Z,-1.91
2023-01-28T02:17:13.118Z,-1.91
2023-01-28T02:27:13.401Z,-1.91
2023-01-28T02:37:13.279Z,-1.91
2023-01-28T02:47:13.328Z,-1.91
2023-01-28T02:57:13.660Z,-1.75
2023-01-28T03:07:13.701Z,-1.75
2023-01-28T03:17:14.032Z,-1.91
2023-01-28T03:27:14.098Z,-1.91
2023-01-28T03:37:14.377Z,-1.91
2023-01-28T03:47:14.534Z,-1.91
2023-01-28T03:57:14.867Z,-2.06
2023-01-28T04:07:14.906Z,-2.06
2023-01-28T04:17:15.232Z,-2.06
2023-01-28T04:27:15.277Z,-2.22
2023-01-28T04:37:15.609Z,-2.06
2023-01-28T04:47:15.645Z,-2.06
2023-01-28T04:57:15.987Z,-2.06
2023-01-28T05:07:16.013Z,-2.22
2023-01-28T05:17:16.283Z,-2.22
2023-01-28T05:27:16.338Z,-2.71
2023-01-28T05:37:16.692Z,-3.21
2023-01-28T05:47:17.488Z,-3.21
2023-01-28T05:57:16.919Z,-3.04
2023-01-28T06:07:17.152Z,-3.38
2023-01-28T06:17:17.473Z,-3.55
2023-01-28T06:27:17.506Z,-3.55
2023-01-28T06:37:17.826Z,-3.55
2023-01-28T06:47:17.914Z,-3.55
2023-01-28T06:57:17.997Z,-3.55
2023-01-28T07:07:18.087Z,-3.73
2023-01-28T07:17:18.183Z,-3.73
2023-01-28T07:27:18.220Z,-3.91
2023-01-28T07:37:18.532Z,-3.91
2023-01-28T07:47:18.619Z,-3.73
2023-01-28T07:57:18.693Z,-3.73
2023-01-28T08:07:18.931Z,-3.73
2023-01-28T08:17:19.277Z,-4.08
2023-01-28T08:27:19.325Z,-4.08
2023-01-28T08:37:19.659Z,-4.27
2023-01-28T08:47:19.687Z,-4.27
2023-01-28T08:57:20.039Z,-4.27
2023-01-28T09:07:20.079Z,-3.12
2023-01-28T09:17:20.383Z,-3.12
2023-01-28T09:27:20.422Z,-2.15
2023-01-28T09:37:20.655Z,-2.52
2023-01-28T09:47:20.696Z,-2.34
2023-01-28T09:57:21.030Z,-2.34
2023-01-28T10:07:21.081Z,-2.15
2023-01-28T10:17:21.560Z,-2.34
2023-01-28T10:27:21.403Z,-2.90
2023-01-28T10:37:21.684Z,-1.75
2023-01-28T10:47:21.723Z,-1.94
2023-01-28T10:57:22.049Z,-1.75
2023-01-28T11:07:22.088Z,-2.90
2023-01-28T11:17:24.521Z,-2.52
2023-01-28T11:27:22.414Z,-2.90
2023-01-28T11:37:22.574Z,-2.34
2023-01-28T11:47:22.747Z,-2.34
2023-01-28T11:57:26.114Z,-2.52
2023-01-28T12:07:22.949Z,-2.34
2023-01-28T12:17:25.417Z,-2.34
2023-01-28T12:27:23.275Z,-2.52
2023-01-28T12:37:23.583Z,-2.34
2023-01-28T12:47:23.617Z,-2.52
2023-01-28T12:57:24.023Z,-2.52
2023-01-28T13:07:24.177Z,-2.52
2023-01-28T13:17:24.350Z,-2.71
2023-01-28T13:27:25.115Z,-2.71
2023-01-28T13:37:27.975Z,-2.71
2023-01-28T13:47:24.804Z,-2.90
2023-01-28T13:57:25.056Z,-2.90
2023-01-28T14:07:25.297Z,-2.90
2023-01-28T14:17:27.473Z,-2.71
2023-01-28T14:27:25.611Z,-2.71
2023-01-28T14:37:25.905Z,-2.90
2023-01-28T14:47:25.949Z,-2.71
2023-01-28T14:57:26.269Z,-2.90
2023-01-28T15:07:26.300Z,-2.71
2023-01-28T15:17:26.790Z,-2.71
2023-01-28T15:27:26.654Z,-2.52
2023-01-28T15:37:34.353Z,-2.71
2023-01-28T15:47:27.197Z,-2.71
2023-01-28T15:57:27.307Z,-3.49
2023-01-28T16:07:27.341Z,-3.49
2023-01-28T16:17:27.737Z,-3.49
2023-01-28T16:27:27.799Z,-3.30
2023-01-28T16:37:28.443Z,-3.30
2023-01-28T16:47:28.172Z,-3.30
2023-01-28T16:57:28.501Z,-3.49
2023-01-28T17:07:28.548Z,-3.30
2023-01-28T17:17:29.005Z,-3.49
2023-01-28T17:27:28.905Z,-3.30
2023-01-28T17:37:29.249Z,-3.49
2023-01-28T17:47:29.428Z,-3.49
2023-01-28T17:57:32.848Z,-3.49
2023-01-28T18:07:29.748Z,-3.30
2023-01-28T18:17:29.979Z,-3.12
2023-01-28T18:27:30.313Z,-3.12
2023-01-28T18:37:30.302Z,-2.94
2023-01-28T18:47:30.397Z,-2.76
2023-01-28T18:57:30.816Z,-3.73
2023-01-28T19:07:31.863Z,-3.55
2023-01-28T19:17:33.937Z,-3.55
2023-01-28T19:27:31.515Z,-3.55
2023-01-28T19:37:31.466Z,-3.38
2023-01-28T19:47:31.850Z,-3.38
2023-01-28T19:57:37.056Z,-3.21
2023-01-28T20:07:32.191Z,-3.21
2023-01-28T20:17:32.703Z,-3.21
2023-01-28T20:27:32.860Z,-3.04
2023-01-28T20:37:33.139Z,-2.87
2023-01-28T20:47:33.198Z,-2.71
2023-01-28T20:57:33.265Z,-2.54
2023-01-28T21:07:33.339Z,-2.54
2023-01-28T21:17:33.606Z,-2.54
2023-01-28T21:27:33.664Z,-2.71
2023-01-28T21:37:33.781Z,-2.87
2023-01-28T21:47:33.817Z,-2.71
2023-01-28T21:57:39.594Z,-2.71
2023-01-28T22:07:34.260Z,-3.04
2023-01-28T22:17:35.507Z,-3.38
2023-01-28T22:27:34.753Z,-2.71
2023-01-28T22:37:34.987Z,-2.54
2023-01-28T22:47:35.234Z,-3.52
2023-01-28T22:57:35.572Z,-3.36
2023-01-28T23:07:35.604Z,-3.20
2023-01-28T23:17:35.958Z,-3.05
2023-01-28T23:27:36.000Z,-3.05
2023-01-28T23:37:36.302Z,-3.05
2023-01-28T23:47:36.337Z,-3.05
2023-01-28T23:57:36.669Z,-2.89
